sensor_id;sensor_type;location;lat;lon;timestamp;temperature;humidity
2447;DHT22;26430;48.818;9.244;2024-01-30T00:02:16;8.90;99.90
2447;DHT22;26430;48.818;9.244;2024-01-30T00:04:42;9.00;99.90
2447;DHT22;26430;48.818;9.244;2024-01-30T00:07:07;8.90;99.90
2447;DHT22;26430;48.818;9.244;2024-01-30T00:09:33;8.90;99.90
2447;DHT22;26430;48.818;9.244;2024-01-30T00:11:59;8.80;99.90
2447;DHT22;26430;48.818;9.244;2024-01-30T00:14:24;8.80;99.90
2447;DHT22;26430;48.818;9.244;2024-01-30T00:16:51;8.70;99.90
2447;DHT22;26430;48.818;9.244;2024-01-30T00:19:17;8.70;99.90
2447;DHT22;26430;48.818;9.244;2024-01-30T00:21:43;8.80;99.90
2447;DHT22;26430;48.818;9.244;2024-01-30T00:24:09;8.60;99.90
2447;DHT22;26430;48.818;9.244;2024-01-30T00:26:34;8.70;99.90
2447;DHT22;26430;48.818;9.244;2024-01-30T00:29:00;8.60;99.90
2447;DHT22;26430;48.818;9.244;2024-01-30T00:31:25;8.60;99.90
2447;DHT22;26430;48.818;9.244;2024-01-30T00:33:51;8.50;99.90
2447;DHT22;26430;48.818;9.244;2024-01-30T00:36:17;8.50;99.90
2447;DHT22;26430;48.818;9.244;2024-01-30T00:38:42;8.50;99.90
2447;DHT22;26430;48.818;9.244;2024-01-30T00:41:08;8.50;99.90
2447;DHT22;26430;48.818;9.244;2024-01-30T00:43:35;8.30;99.90
2447;DHT22;26430;48.818;9.244;2024-01-30T00:46:00;8.30;99.90
2447;DHT22;26430;48.818;9.244;2024-01-30T00:48:26;8.30;99.90
2447;DHT22;26430;48.818;9.244;2024-01-30T00:50:51;8.40;99.90
2447;DHT22;26430;48.818;9.244;2024-01-30T00:53:17;8.30;99.90
2447;DHT22;26430;48.818;9.244;2024-01-30T00:55:43;8.40;99.90
2447;DHT22;26430;48.818;9.244;2024-01-30T00:58:08;8.40;99.90
2447;DHT22;26430;48.818;9.244;2024-01-30T01:00:34;8.50;99.90
2447;DHT22;26430;48.818;9.244;2024-01-30T01:03:00;8.50;99.90
2447;DHT22;26430;48.818;9.244;2024-01-30T01:05:25;8.50;99.90
2447;DHT22;26430;48.818;9.244;2024-01-30T01:07:51;8.40;99.90
2447;DHT22;26430;48.818;9.244;2024-01-30T01:10:17;8.40;99.90
2447;DHT22;26430;48.818;9.244;2024-01-30T01:12:44;8.40;99.90
2447;DHT22;26430;48.818;9.244;2024-01-30T01:15:09;8.40;99.90
2447;DHT22;26430;48.818;9.244;2024-01-30T01:17:36;8.40;99.90
2447;DHT22;26430;48.818;9.244;2024-01-30T01:20:03;8.40;99.90
2447;DHT22;26430;48.818;9.244;2024-01-30T01:22:29;8.40;99.90
2447;DHT22;26430;48.818;9.244;2024-01-30T01:24:54;8.30;99.90
2447;DHT22;26430;48.818;9.244;2024-01-30T01:27:20;8.20;99.90
2447;DHT22;26430;48.818;9.244;2024-01-30T01:29:46;8.20;99.90
2447;DHT22;26430;48.818;9.244;2024-01-30T01:32:12;8.20;99.90
2447;DHT22;26430;48.818;9.244;2024-01-30T01:34:37;8.20;99.90
2447;DHT22;26430;48.818;9.244;2024-01-30T01:37:03;8.10;99.90
2447;DHT22;26430;48.818;9.244;2024-01-30T01:39:28;8.10;99.90
2447;DHT22;26430;48.818;9.244;2024-01-30T01:41:54;8.20;99.90
2447;DHT22;26430;48.818;9.244;2024-01-30T01:44:19;8.30;99.90
2447;DHT22;26430;48.818;9.244;2024-01-30T01:46:45;8.20;99.90
2447;DHT22;26430;48.818;9.244;2024-01-30T01:49:11;8.20;99.90
2447;DHT22;26430;48.818;9.244;2024-01-30T01:51:37;8.20;99.90
2447;DHT22;26430;48.818;9.244;2024-01-30T01:54:06;8.10;99.90
2447;DHT22;26430;48.818;9.244;2024-01-30T01:56:33;8.20;99.90
2447;DHT22;26430;48.818;9.244;2024-01-30T01:59:07;8.20;99.90
2447;DHT22;26430;48.818;9.244;2024-01-30T02:01:34;8.10;99.90
2447;DHT22;26430;48.818;9.244;2024-01-30T02:04:00;8.00;99.90
2447;DHT22;26430;48.818;9.244;2024-01-30T02:06:26;8.00;99.90
2447;DHT22;26430;48.818;9.244;2024-01-30T02:08:52;7.90;99.90
2447;DHT22;26430;48.818;9.244;2024-01-30T02:11:19;7.90;99.90
2447;DHT22;26430;48.818;9.244;2024-01-30T02:13:45;7.90;99.90
2447;DHT22;26430;48.818;9.244;2024-01-30T02:16:10;8.00;99.90
2447;DHT22;26430;48.818;9.244;2024-01-30T02:18:36;7.90;99.90
2447;DHT22;26430;48.818;9.244;2024-01-30T02:21:07;7.90;99.90
2447;DHT22;26430;48.818;9.244;2024-01-30T02:23:33;8.00;99.90
2447;DHT22;26430;48.818;9.244;2024-01-30T02:26:00;7.90;99.90
2447;DHT22;26430;48.818;9.244;2024-01-30T02:28:26;7.80;99.90
2447;DHT22;26430;48.818;9.244;2024-01-30T02:30:51;7.80;99.90
2447;DHT22;26430;48.818;9.244;2024-01-30T02:33:17;7.90;99.90
2447;DHT22;26430;48.818;9.244;2024-01-30T02:35:42;7.80;99.90
2447;DHT22;26430;48.818;9.244;2024-01-30T02:38:08;7.70;99.90
2447;DHT22;26430;48.818;9.244;2024-01-30T02:40:34;7.80;99.90
2447;DHT22;26430;48.818;9.244;2024-01-30T02:43:01;7.80;99.90
2447;DHT22;26430;48.818;9.244;2024-01-30T02:45:27;7.70;99.90
2447;DHT22;26430;48.818;9.244;2024-01-30T02:47:52;7.70;99.90
2447;DHT22;26430;48.818;9.244;2024-01-30T02:50:18;7.80;99.90
2447;DHT22;26430;48.818;9.244;2024-01-30T02:52:43;7.80;99.90
2447;DHT22;26430;48.818;9.244;2024-01-30T02:55:09;7.70;99.90
2447;DHT22;26430;48.818;9.244;2024-01-30T02:57:35;7.70;99.90
2447;DHT22;26430;48.818;9.244;2024-01-30T03:00:00;7.70;99.90
2447;DHT22;26430;48.818;9.244;2024-01-30T03:02:26;7.70;99.90
2447;DHT22;26430;48.818;9.244;2024-01-30T03:04:52;7.70;99.90
2447;DHT22;26430;48.818;9.244;2024-01-30T03:07:17;7.50;99.90
2447;DHT22;26430;48.818;9.244;2024-01-30T03:09:43;7.50;99.90
2447;DHT22;26430;48.818;9.244;2024-01-30T03:12:09;7.50;99.90
2447;DHT22;26430;48.818;9.244;2024-01-30T03:14:35;7.40;99.90
2447;DHT22;26430;48.818;9.244;2024-01-30T03:17:00;7.50;99.90
2447;DHT22;26430;48.818;9.244;2024-01-30T03:19:26;7.40;99.90
2447;DHT22;26430;48.818;9.244;2024-01-30T03:21:53;7.40;99.90
2447;DHT22;26430;48.818;9.244;2024-01-30T03:24:18;7.50;99.90
2447;DHT22;26430;48.818;9.244;2024-01-30T03:26:44;7.50;99.90
2447;DHT22;26430;48.818;9.244;2024-01-30T03:29:10;7.20;99.90
2447;DHT22;26430;48.818;9.244;2024-01-30T03:31:35;7.40;99.90
2447;DHT22;26430;48.818;9.244;2024-01-30T03:34:01;7.50;99.90
2447;DHT22;26430;48.818;9.244;2024-01-30T03:36:27;7.60;99.90
2447;DHT22;26430;48.818;9.244;2024-01-30T03:38:53;7.60;99.90
2447;DHT22;26430;48.818;9.244;2024-01-30T03:41:18;7.60;99.90
2447;DHT22;26430;48.818;9.244;2024-01-30T03:43:44;7.70;99.90
2447;DHT22;26430;48.818;9.244;2024-01-30T03:46:12;7.50;99.90
2447;DHT22;26430;48.818;9.244;2024-01-30T03:48:37;7.60;99.90
2447;DHT22;26430;48.818;9.244;2024-01-30T03:51:04;7.60;99.90
2447;DHT22;26430;48.818;9.244;2024-01-30T03:53:30;7.50;99.90
2447;DHT22;26430;48.818;9.244;2024-01-30T03:55:55;7.50;99.90
2447;DHT22;26430;48.818;9.244;2024-01-30T03:58:21;7.50;99.90
2447;DHT22;26430;48.818;9.244;2024-01-30T04:00:47;7.50;99.90
2447;DHT22;26430;48.818;9.244;2024-01-30T04:03:14;7.50;99.90
2447;DHT22;26430;48.818;9.244;2024-01-30T04:05:41;7.40;99.90
2447;DHT22;26430;48.818;9.244;2024-01-30T04:08:07;7.50;99.90
2447;DHT22;26430;48.818;9.244;2024-01-30T04:10:32;7.40;99.90
2447;DHT22;26430;48.818;9.244;2024-01-30T04:12:58;7.40;99.90
2447;DHT22;26430;48.818;9.244;2024-01-30T04:15:24;7.40;99.90
2447;DHT22;26430;48.818;9.244;2024-01-30T04:17:50;7.30;99.90
2447;DHT22;26430;48.818;9.244;2024-01-30T04:20:16;7.10;99.90
2447;DHT22;26430;48.818;9.244;2024-01-30T04:22:45;7.30;99.90
2447;DHT22;26430;48.818;9.244;2024-01-30T04:25:14;7.30;99.90
2447;DHT22;26430;48.818;9.244;2024-01-30T04:27:40;7.20;99.90
2447;DHT22;26430;48.818;9.244;2024-01-30T04:30:06;7.10;99.90
2447;DHT22;26430;48.818;9.244;2024-01-30T04:32:32;7.10;99.90
2447;DHT22;26430;48.818;9.244;2024-01-30T04:34:57;7.20;99.90
2447;DHT22;26430;48.818;9.244;2024-01-30T04:37:23;7.20;99.90
2447;DHT22;26430;48.818;9.244;2024-01-30T04:39:49;7.20;99.90
2447;DHT22;26430;48.818;9.244;2024-01-30T04:42:14;7.10;99.90
2447;DHT22;26430;48.818;9.244;2024-01-30T04:44:40;7.20;99.90
2447;DHT22;26430;48.818;9.244;2024-01-30T04:47:06;7.10;99.90
2447;DHT22;26430;48.818;9.244;2024-01-30T04:49:34;7.10;99.90
2447;DHT22;26430;48.818;9.244;2024-01-30T04:52:00;7.10;99.90
2447;DHT22;26430;48.818;9.244;2024-01-30T04:54:25;7.10;99.90
2447;DHT22;26430;48.818;9.244;2024-01-30T04:56:51;7.00;99.90
2447;DHT22;26430;48.818;9.244;2024-01-30T04:59:16;7.00;99.90
2447;DHT22;26430;48.818;9.244;2024-01-30T05:01:42;7.00;99.90
2447;DHT22;26430;48.818;9.244;2024-01-30T05:04:09;6.90;99.90
2447;DHT22;26430;48.818;9.244;2024-01-30T05:06:36;6.90;99.90
2447;DHT22;26430;48.818;9.244;2024-01-30T05:09:02;6.80;99.90
2447;DHT22;26430;48.818;9.244;2024-01-30T05:11:29;6.80;99.90
2447;DHT22;26430;48.818;9.244;2024-01-30T05:13:55;7.00;99.90
2447;DHT22;26430;48.818;9.244;2024-01-30T05:16:20;7.30;99.90
2447;DHT22;26430;48.818;9.244;2024-01-30T05:18:46;7.50;99.90
2447;DHT22;26430;48.818;9.244;2024-01-30T05:21:11;7.60;99.90
2447;DHT22;26430;48.818;9.244;2024-01-30T05:23:37;7.70;99.90
2447;DHT22;26430;48.818;9.244;2024-01-30T05:26:02;7.40;99.90
2447;DHT22;26430;48.818;9.244;2024-01-30T05:28:31;7.60;99.90
2447;DHT22;26430;48.818;9.244;2024-01-30T05:30:57;7.80;99.90
2447;DHT22;26430;48.818;9.244;2024-01-30T05:33:22;7.70;99.90
2447;DHT22;26430;48.818;9.244;2024-01-30T05:35:48;7.80;99.90
2447;DHT22;26430;48.818;9.244;2024-01-30T05:38:15;8.00;99.90
2447;DHT22;26430;48.818;9.244;2024-01-30T05:40:41;7.70;99.90
2447;DHT22;26430;48.818;9.244;2024-01-30T05:43:06;7.80;99.90
2447;DHT22;26430;48.818;9.244;2024-01-30T05:45:33;7.90;99.90
2447;DHT22;26430;48.818;9.244;2024-01-30T05:47:59;8.00;99.90
2447;DHT22;26430;48.818;9.244;2024-01-30T05:50:25;8.10;99.90
2447;DHT22;26430;48.818;9.244;2024-01-30T05:52:51;8.10;99.90
2447;DHT22;26430;48.818;9.244;2024-01-30T05:55:17;8.00;99.90
2447;DHT22;26430;48.818;9.244;2024-01-30T05:57:42;8.10;99.90
2447;DHT22;26430;48.818;9.244;2024-01-30T06:00:08;8.00;99.90
2447;DHT22;26430;48.818;9.244;2024-01-30T06:02:34;8.10;99.90
2447;DHT22;26430;48.818;9.244;2024-01-30T06:04:59;8.20;99.90
2447;DHT22;26430;48.818;9.244;2024-01-30T06:07:25;8.10;99.90
2447;DHT22;26430;48.818;9.244;2024-01-30T06:09:50;7.80;99.90
2447;DHT22;26430;48.818;9.244;2024-01-30T06:12:16;7.70;99.90
2447;DHT22;26430;48.818;9.244;2024-01-30T06:14:42;8.00;99.90
2447;DHT22;26430;48.818;9.244;2024-01-30T06:17:08;7.90;99.90
2447;DHT22;26430;48.818;9.244;2024-01-30T06:19:33;7.80;99.90
2447;DHT22;26430;48.818;9.244;2024-01-30T06:21:59;7.60;99.90
2447;DHT22;26430;48.818;9.244;2024-01-30T06:24:25;7.70;99.90
2447;DHT22;26430;48.818;9.244;2024-01-30T06:26:50;7.70;99.90
2447;DHT22;26430;48.818;9.244;2024-01-30T06:29:16;7.60;99.90
2447;DHT22;26430;48.818;9.244;2024-01-30T06:31:42;7.30;99.90
2447;DHT22;26430;48.818;9.244;2024-01-30T06:34:09;7.40;99.90
2447;DHT22;26430;48.818;9.244;2024-01-30T06:36:35;7.30;99.90
2447;DHT22;26430;48.818;9.244;2024-01-30T06:39:02;7.30;99.90
2447;DHT22;26430;48.818;9.244;2024-01-30T06:41:28;7.50;99.90
2447;DHT22;26430;48.818;9.244;2024-01-30T06:43:53;7.60;99.90
2447;DHT22;26430;48.818;9.244;2024-01-30T06:46:19;7.50;99.90
2447;DHT22;26430;48.818;9.244;2024-01-30T06:48:44;7.60;99.90
2447;DHT22;26430;48.818;9.244;2024-01-30T06:51:11;7.70;99.90
2447;DHT22;26430;48.818;9.244;2024-01-30T06:53:37;7.80;99.90
2447;DHT22;26430;48.818;9.244;2024-01-30T06:56:03;8.00;99.90
2447;DHT22;26430;48.818;9.244;2024-01-30T06:58:28;8.00;99.90
2447;DHT22;26430;48.818;9.244;2024-01-30T07:00:54;7.90;99.90
2447;DHT22;26430;48.818;9.244;2024-01-30T07:03:20;7.90;99.90
2447;DHT22;26430;48.818;9.244;2024-01-30T07:05:46;7.90;99.90
2447;DHT22;26430;48.818;9.244;2024-01-30T07:08:11;7.70;99.90
2447;DHT22;26430;48.818;9.244;2024-01-30T07:10:37;7.80;99.90
2447;DHT22;26430;48.818;9.244;2024-01-30T07:13:02;7.80;99.90
2447;DHT22;26430;48.818;9.244;2024-01-30T07:15:29;7.90;99.90
2447;DHT22;26430;48.818;9.244;2024-01-30T07:17:55;8.00;99.90
2447;DHT22;26430;48.818;9.244;2024-01-30T07:20:20;8.10;99.90
2447;DHT22;26430;48.818;9.244;2024-01-30T07:22:46;8.20;99.90
2447;DHT22;26430;48.818;9.244;2024-01-30T07:25:12;8.30;99.90
2447;DHT22;26430;48.818;9.244;2024-01-30T07:27:38;8.00;99.90
2447;DHT22;26430;48.818;9.244;2024-01-30T07:30:04;7.80;99.90
2447;DHT22;26430;48.818;9.244;2024-01-30T07:32:29;7.90;99.90
2447;DHT22;26430;48.818;9.244;2024-01-30T07:34:55;8.00;99.90
2447;DHT22;26430;48.818;9.244;2024-01-30T07:37:20;7.90;99.90
2447;DHT22;26430;48.818;9.244;2024-01-30T07:39:46;7.90;99.90
2447;DHT22;26430;48.818;9.244;2024-01-30T07:42:12;7.90;99.90
2447;DHT22;26430;48.818;9.244;2024-01-30T07:44:38;8.00;99.90
2447;DHT22;26430;48.818;9.244;2024-01-30T07:47:04;7.90;99.90
2447;DHT22;26430;48.818;9.244;2024-01-30T07:49:30;7.70;99.90
2447;DHT22;26430;48.818;9.244;2024-01-30T07:51:55;7.60;99.90
2447;DHT22;26430;48.818;9.244;2024-01-30T07:54:21;7.70;99.90
2447;DHT22;26430;48.818;9.244;2024-01-30T07:56:46;7.70;99.90
2447;DHT22;26430;48.818;9.244;2024-01-30T07:59:12;7.60;99.90
2447;DHT22;26430;48.818;9.244;2024-01-30T08:01:38;7.50;99.90
2447;DHT22;26430;48.818;9.244;2024-01-30T08:04:04;7.60;99.90
2447;DHT22;26430;48.818;9.244;2024-01-30T08:06:29;7.50;99.90
2447;DHT22;26430;48.818;9.244;2024-01-30T08:08:55;7.60;99.90
2447;DHT22;26430;48.818;9.244;2024-01-30T08:11:21;7.40;99.90
2447;DHT22;26430;48.818;9.244;2024-01-30T08:13:51;7.50;99.90
2447;DHT22;26430;48.818;9.244;2024-01-30T08:16:17;7.50;99.90
2447;DHT22;26430;48.818;9.244;2024-01-30T08:18:43;7.60;99.90
2447;DHT22;26430;48.818;9.244;2024-01-30T08:21:09;7.70;99.90
2447;DHT22;26430;48.818;9.244;2024-01-30T08:23:35;7.80;99.90
2447;DHT22;26430;48.818;9.244;2024-01-30T08:26:00;7.90;99.90
2447;DHT22;26430;48.818;9.244;2024-01-30T08:28:26;8.00;99.90
2447;DHT22;26430;48.818;9.244;2024-01-30T08:30:52;8.00;99.90
2447;DHT22;26430;48.818;9.244;2024-01-30T08:33:17;8.10;99.90
2447;DHT22;26430;48.818;9.244;2024-01-30T08:35:43;8.00;99.90
2447;DHT22;26430;48.818;9.244;2024-01-30T08:38:09;8.10;99.90
2447;DHT22;26430;48.818;9.244;2024-01-30T08:40:34;8.20;99.90
2447;DHT22;26430;48.818;9.244;2024-01-30T08:43:00;8.40;99.90
2447;DHT22;26430;48.818;9.244;2024-01-30T08:45:25;8.40;99.90
2447;DHT22;26430;48.818;9.244;2024-01-30T08:47:51;8.40;99.90
2447;DHT22;26430;48.818;9.244;2024-01-30T08:50:16;8.30;99.90
2447;DHT22;26430;48.818;9.244;2024-01-30T08:52:42;8.40;99.90
2447;DHT22;26430;48.818;9.244;2024-01-30T08:55:08;8.50;99.90
2447;DHT22;26430;48.818;9.244;2024-01-30T08:57:33;8.60;99.90
2447;DHT22;26430;48.818;9.244;2024-01-30T08:59:59;8.50;99.90
2447;DHT22;26430;48.818;9.244;2024-01-30T09:02:25;8.50;99.90
2447;DHT22;26430;48.818;9.244;2024-01-30T09:04:51;8.60;99.90
2447;DHT22;26430;48.818;9.244;2024-01-30T09:07:16;8.70;99.90
2447;DHT22;26430;48.818;9.244;2024-01-30T09:09:42;8.70;99.90
2447;DHT22;26430;48.818;9.244;2024-01-30T09:12:08;8.70;99.90
2447;DHT22;26430;48.818;9.244;2024-01-30T09:14:37;8.80;99.90
2447;DHT22;26430;48.818;9.244;2024-01-30T09:17:03;8.80;99.90
2447;DHT22;26430;48.818;9.244;2024-01-30T09:19:30;8.80;99.90
2447;DHT22;26430;48.818;9.244;2024-01-30T09:21:55;8.90;99.90
2447;DHT22;26430;48.818;9.244;2024-01-30T09:24:21;8.90;99.90
2447;DHT22;26430;48.818;9.244;2024-01-30T09:26:47;9.00;99.90
2447;DHT22;26430;48.818;9.244;2024-01-30T09:29:12;9.10;99.90
2447;DHT22;26430;48.818;9.244;2024-01-30T09:31:38;9.20;99.90
2447;DHT22;26430;48.818;9.244;2024-01-30T09:34:03;9.20;99.90
2447;DHT22;26430;48.818;9.244;2024-01-30T09:36:29;9.30;99.90
2447;DHT22;26430;48.818;9.244;2024-01-30T09:38:54;9.40;99.90
2447;DHT22;26430;48.818;9.244;2024-01-30T09:41:23;9.40;99.90
2447;DHT22;26430;48.818;9.244;2024-01-30T09:43:50;9.40;99.90
2447;DHT22;26430;48.818;9.244;2024-01-30T09:46:17;9.40;99.90
2447;DHT22;26430;48.818;9.244;2024-01-30T09:48:46;9.50;99.90
2447;DHT22;26430;48.818;9.244;2024-01-30T09:51:17;9.50;99.90
2447;DHT22;26430;48.818;9.244;2024-01-30T09:53:43;9.50;99.90
2447;DHT22;26430;48.818;9.244;2024-01-30T09:56:14;9.60;99.90
2447;DHT22;26430;48.818;9.244;2024-01-30T09:58:40;9.70;99.90
2447;DHT22;26430;48.818;9.244;2024-01-30T10:01:06;9.70;99.90
2447;DHT22;26430;48.818;9.244;2024-01-30T10:03:32;9.70;99.90
2447;DHT22;26430;48.818;9.244;2024-01-30T10:05:58;9.80;99.90
2447;DHT22;26430;48.818;9.244;2024-01-30T10:08:24;9.80;99.90
2447;DHT22;26430;48.818;9.244;2024-01-30T10:10:51;9.90;99.90
2447;DHT22;26430;48.818;9.244;2024-01-30T10:13:17;10.00;99.90
2447;DHT22;26430;48.818;9.244;2024-01-30T10:15:42;10.10;99.90
2447;DHT22;26430;48.818;9.244;2024-01-30T10:18:11;10.20;99.90
2447;DHT22;26430;48.818;9.244;2024-01-30T10:20:37;10.30;99.90
2447;DHT22;26430;48.818;9.244;2024-01-30T10:23:03;10.40;99.90
2447;DHT22;26430;48.818;9.244;2024-01-30T10:25:30;10.50;99.90
2447;DHT22;26430;48.818;9.244;2024-01-30T10:27:57;10.50;99.90
2447;DHT22;26430;48.818;9.244;2024-01-30T10:30:23;10.60;99.90
2447;DHT22;26430;48.818;9.244;2024-01-30T10:32:49;10.70;99.90
2447;DHT22;26430;48.818;9.244;2024-01-30T10:35:15;10.70;99.90
2447;DHT22;26430;48.818;9.244;2024-01-30T10:37:43;10.80;99.90
2447;DHT22;26430;48.818;9.244;2024-01-30T10:40:13;10.80;99.90
2447;DHT22;26430;48.818;9.244;2024-01-30T10:42:45;10.80;99.90
2447;DHT22;26430;48.818;9.244;2024-01-30T10:45:14;10.80;99.90
2447;DHT22;26430;48.818;9.244;2024-01-30T10:47:50;10.90;99.90
2447;DHT22;26430;48.818;9.244;2024-01-30T10:50:16;10.90;99.90
2447;DHT22;26430;48.818;9.244;2024-01-30T10:52:42;11.00;99.90
2447;DHT22;26430;48.818;9.244;2024-01-30T10:55:09;11.00;99.90
2447;DHT22;26430;48.818;9.244;2024-01-30T10:57:35;11.00;99.90
2447;DHT22;26430;48.818;9.244;2024-01-30T11:00:09;11.10;99.90
2447;DHT22;26430;48.818;9.244;2024-01-30T11:02:41;11.10;99.90
2447;DHT22;26430;48.818;9.244;2024-01-30T11:05:08;11.10;99.90
2447;DHT22;26430;48.818;9.244;2024-01-30T11:07:34;11.20;99.90
2447;DHT22;26430;48.818;9.244;2024-01-30T11:12:26;11.30;99.90
2447;DHT22;26430;48.818;9.244;2024-01-30T11:15:06;11.30;99.90
2447;DHT22;26430;48.818;9.244;2024-01-30T11:20:21;11.40;99.90
2447;DHT22;26430;48.818;9.244;2024-01-30T11:22:50;11.40;99.90
2447;DHT22;26430;48.818;9.244;2024-01-30T11:25:17;11.40;99.90
2447;DHT22;26430;48.818;9.244;2024-01-30T11:27:45;11.40;99.90
2447;DHT22;26430;48.818;9.244;2024-01-30T11:30:20;11.50;99.90
2447;DHT22;26430;48.818;9.244;2024-01-30T11:32:45;11.50;99.90
2447;DHT22;26430;48.818;9.244;2024-01-30T11:35:11;11.50;99.90
2447;DHT22;26430;48.818;9.244;2024-01-30T11:37:37;11.50;99.90
2447;DHT22;26430;48.818;9.244;2024-01-30T11:40:07;11.50;99.90
2447;DHT22;26430;48.818;9.244;2024-01-30T11:42:34;11.50;99.90
2447;DHT22;26430;48.818;9.244;2024-01-30T11:45:02;11.50;99.90
2447;DHT22;26430;48.818;9.244;2024-01-30T11:47:28;11.50;99.90
2447;DHT22;26430;48.818;9.244;2024-01-30T11:49:54;11.50;99.90
2447;DHT22;26430;48.818;9.244;2024-01-30T11:52:20;11.60;99.90
2447;DHT22;26430;48.818;9.244;2024-01-30T11:54:45;11.60;99.90
2447;DHT22;26430;48.818;9.244;2024-01-30T11:57:11;11.60;99.90
2447;DHT22;26430;48.818;9.244;2024-01-30T11:59:36;11.60;99.90
2447;DHT22;26430;48.818;9.244;2024-01-30T12:02:02;11.60;99.90
2447;DHT22;26430;48.818;9.244;2024-01-30T12:04:29;11.60;99.90
2447;DHT22;26430;48.818;9.244;2024-01-30T12:06:54;11.60;99.90
2447;DHT22;26430;48.818;9.244;2024-01-30T12:09:20;11.70;99.90
2447;DHT22;26430;48.818;9.244;2024-01-30T12:11:48;11.70;99.90
2447;DHT22;26430;48.818;9.244;2024-01-30T12:14:14;11.70;99.90
2447;DHT22;26430;48.818;9.244;2024-01-30T12:16:40;11.70;99.90
2447;DHT22;26430;48.818;9.244;2024-01-30T12:19:07;11.70;99.90
2447;DHT22;26430;48.818;9.244;2024-01-30T12:21:33;11.70;99.90
2447;DHT22;26430;48.818;9.244;2024-01-30T12:24:00;11.70;99.90
2447;DHT22;26430;48.818;9.244;2024-01-30T12:26:26;11.80;99.90
2447;DHT22;26430;48.818;9.244;2024-01-30T12:28:54;11.80;99.90
2447;DHT22;26430;48.818;9.244;2024-01-30T12:31:31;11.80;99.90
2447;DHT22;26430;48.818;9.244;2024-01-30T12:33:59;11.80;99.90
2447;DHT22;26430;48.818;9.244;2024-01-30T12:36:25;11.80;99.90
2447;DHT22;26430;48.818;9.244;2024-01-30T12:38:51;11.80;99.90
2447;DHT22;26430;48.818;9.244;2024-01-30T12:41:17;11.80;99.90
2447;DHT22;26430;48.818;9.244;2024-01-30T12:43:43;11.80;99.90
2447;DHT22;26430;48.818;9.244;2024-01-30T12:46:08;11.90;99.90
2447;DHT22;26430;48.818;9.244;2024-01-30T12:48:34;11.90;99.90
2447;DHT22;26430;48.818;9.244;2024-01-30T12:50:59;11.90;99.90
2447;DHT22;26430;48.818;9.244;2024-01-30T12:53:25;11.90;99.90
2447;DHT22;26430;48.818;9.244;2024-01-30T12:55:51;11.90;99.90
2447;DHT22;26430;48.818;9.244;2024-01-30T12:58:16;11.90;99.90
2447;DHT22;26430;48.818;9.244;2024-01-30T13:00:42;11.90;99.90
2447;DHT22;26430;48.818;9.244;2024-01-30T13:03:09;11.90;99.90
2447;DHT22;26430;48.818;9.244;2024-01-30T13:05:35;11.90;99.90
2447;DHT22;26430;48.818;9.244;2024-01-30T13:08:01;11.90;99.90
2447;DHT22;26430;48.818;9.244;2024-01-30T13:10:26;11.90;99.90
2447;DHT22;26430;48.818;9.244;2024-01-30T13:12:52;12.00;99.90
2447;DHT22;26430;48.818;9.244;2024-01-30T13:15:18;12.00;99.90
2447;DHT22;26430;48.818;9.244;2024-01-30T13:17:44;12.00;99.90
2447;DHT22;26430;48.818;9.244;2024-01-30T13:20:11;12.00;99.90
2447;DHT22;26430;48.818;9.244;2024-01-30T13:22:37;12.00;99.90
2447;DHT22;26430;48.818;9.244;2024-01-30T13:25:04;12.00;99.90
2447;DHT22;26430;48.818;9.244;2024-01-30T13:27:29;12.00;99.90
2447;DHT22;26430;48.818;9.244;2024-01-30T13:29:55;12.00;99.90
2447;DHT22;26430;48.818;9.244;2024-01-30T13:32:20;12.00;99.90
2447;DHT22;26430;48.818;9.244;2024-01-30T13:34:46;12.10;99.90
2447;DHT22;26430;48.818;9.244;2024-01-30T13:37:12;12.10;99.90
2447;DHT22;26430;48.818;9.244;2024-01-30T13:39:37;12.10;99.90
2447;DHT22;26430;48.818;9.244;2024-01-30T13:42:04;12.10;99.90
2447;DHT22;26430;48.818;9.244;2024-01-30T13:44:30;12.10;99.90
2447;DHT22;26430;48.818;9.244;2024-01-30T13:46:55;12.10;99.90
2447;DHT22;26430;48.818;9.244;2024-01-30T13:49:21;12.10;99.90
2447;DHT22;26430;48.818;9.244;2024-01-30T13:51:47;12.10;99.90
2447;DHT22;26430;48.818;9.244;2024-01-30T13:54:12;12.20;99.90
2447;DHT22;26430;48.818;9.244;2024-01-30T13:56:38;12.20;99.90
2447;DHT22;26430;48.818;9.244;2024-01-30T13:59:04;12.20;99.90
2447;DHT22;26430;48.818;9.244;2024-01-30T14:01:31;12.20;99.90
2447;DHT22;26430;48.818;9.244;2024-01-30T14:03:57;12.20;99.90
2447;DHT22;26430;48.818;9.244;2024-01-30T14:06:23;12.20;99.90
2447;DHT22;26430;48.818;9.244;2024-01-30T14:08:48;12.20;99.90
2447;DHT22;26430;48.818;9.244;2024-01-30T14:11:14;12.20;99.90
2447;DHT22;26430;48.818;9.244;2024-01-30T14:13:39;12.20;99.90
2447;DHT22;26430;48.818;9.244;2024-01-30T14:16:05;12.20;99.90
2447;DHT22;26430;48.818;9.244;2024-01-30T14:18:31;12.20;99.90
2447;DHT22;26430;48.818;9.244;2024-01-30T14:20:56;12.30;99.90
2447;DHT22;26430;48.818;9.244;2024-01-30T14:23:22;12.30;99.90
2447;DHT22;26430;48.818;9.244;2024-01-30T14:25:48;12.30;99.90
2447;DHT22;26430;48.818;9.244;2024-01-30T14:28:14;12.30;99.90
2447;DHT22;26430;48.818;9.244;2024-01-30T14:30:39;12.30;99.90
2447;DHT22;26430;48.818;9.244;2024-01-30T14:33:05;12.30;99.90
2447;DHT22;26430;48.818;9.244;2024-01-30T14:35:32;12.30;99.90
2447;DHT22;26430;48.818;9.244;2024-01-30T14:37:59;12.30;99.90
2447;DHT22;26430;48.818;9.244;2024-01-30T14:40:24;12.30;99.90
2447;DHT22;26430;48.818;9.244;2024-01-30T14:42:50;12.30;99.90
2447;DHT22;26430;48.818;9.244;2024-01-30T14:45:15;12.30;99.90
2447;DHT22;26430;48.818;9.244;2024-01-30T14:47:42;12.30;99.90
2447;DHT22;26430;48.818;9.244;2024-01-30T14:50:07;12.30;99.90
2447;DHT22;26430;48.818;9.244;2024-01-30T14:52:33;12.40;99.90
2447;DHT22;26430;48.818;9.244;2024-01-30T14:54:59;12.40;99.90
2447;DHT22;26430;48.818;9.244;2024-01-30T14:57:25;12.40;99.90
2447;DHT22;26430;48.818;9.244;2024-01-30T14:59:51;12.40;99.90
2447;DHT22;26430;48.818;9.244;2024-01-30T15:02:16;12.40;99.90
2447;DHT22;26430;48.818;9.244;2024-01-30T15:04:42;12.40;99.90
2447;DHT22;26430;48.818;9.244;2024-01-30T15:07:08;12.40;99.90
2447;DHT22;26430;48.818;9.244;2024-01-30T15:09:33;12.40;99.90
2447;DHT22;26430;48.818;9.244;2024-01-30T15:11:59;12.40;99.90
2447;DHT22;26430;48.818;9.244;2024-01-30T15:14:25;12.40;99.90
2447;DHT22;26430;48.818;9.244;2024-01-30T15:16:50;12.40;99.90
2447;DHT22;26430;48.818;9.244;2024-01-30T15:19:16;12.40;99.90
2447;DHT22;26430;48.818;9.244;2024-01-30T15:21:42;12.40;99.90
2447;DHT22;26430;48.818;9.244;2024-01-30T15:24:07;12.40;99.90
2447;DHT22;26430;48.818;9.244;2024-01-30T15:26:33;12.40;99.90
2447;DHT22;26430;48.818;9.244;2024-01-30T15:28:58;12.40;99.90
2447;DHT22;26430;48.818;9.244;2024-01-30T15:31:24;12.40;99.90
2447;DHT22;26430;48.818;9.244;2024-01-30T15:33:49;12.40;99.90
2447;DHT22;26430;48.818;9.244;2024-01-30T15:36:15;12.40;99.90
2447;DHT22;26430;48.818;9.244;2024-01-30T15:38:41;12.30;99.90
2447;DHT22;26430;48.818;9.244;2024-01-30T15:41:07;12.30;99.90
2447;DHT22;26430;48.818;9.244;2024-01-30T15:43:32;12.30;99.90
2447;DHT22;26430;48.818;9.244;2024-01-30T15:45:59;12.30;99.90
2447;DHT22;26430;48.818;9.244;2024-01-30T15:48:26;12.30;99.90
2447;DHT22;26430;48.818;9.244;2024-01-30T15:50:52;12.30;99.90
2447;DHT22;26430;48.818;9.244;2024-01-30T15:53:20;12.30;99.90
2447;DHT22;26430;48.818;9.244;2024-01-30T15:55:46;12.30;99.90